Time;durP1;ratioP1;P1;durP2;ratioP2;P2;SDS_P1;SDS_P2;PMS_P1;PMS_P2;Temp;Humidity;BMP_temperature;BMP_pressure;BME280_temperature;BME280_humidity;BME280_pressure;Samples;Min_cycle;Max_cycle;Signal;HPM_P1;HPM_P2
2022/09/21 00:00:27;;;;;;;4.20;1.83;;;8.10;99.90;;;;;;5052623;28;20037;-82
2022/09/21 00:02:55;;;;;;;4.38;1.63;;;8.10;99.90;;;;;;5051331;28;20079;-82
2022/09/21 00:05:21;;;;;;;3.90;1.90;;;8.10;99.90;;;;;;5052525;28;20619;-81
2022/09/21 00:07:47;;;;;;;5.45;1.55;;;8.10;99.90;;;;;;5052062;28;20043;-82
2022/09/21 00:10:13;;;;;;;4.05;1.90;;;8.10;99.90;;;;;;5053067;28;20036;-82
2022/09/21 00:12:39;;;;;;;4.40;1.50;;;8.10;99.90;;;;;;5053758;28;20120;-81
2022/09/21 00:15:07;;;;;;;5.07;1.63;;;8.10;99.90;;;;;;5055690;28;20064;-82
2022/09/21 00:17:33;;;;;;;5.07;1.98;;;8.10;99.90;;;;;;5047976;28;20056;-82
2022/09/21 00:20:04;;;;;;;5.57;1.83;;;8.10;99.90;;;;;;5049570;28;20032;-81
2022/09/21 00:22:29;;;;;;;6.82;1.73;;;8.00;99.90;;;;;;5055256;28;20032;-81
2022/09/21 00:24:55;;;;;;;6.22;2.10;;;8.00;99.90;;;;;;5048907;28;20037;-81
2022/09/21 00:27:28;;;;;;;5.07;1.75;;;7.90;99.90;;;;;;5055682;28;20021;-81
2022/09/21 00:29:54;;;;;;;3.13;1.55;;;8.00;99.90;;;;;;5053561;28;20039;-81
2022/09/21 00:32:20;;;;;;;4.40;1.63;;;7.90;99.90;;;;;;5054445;28;20032;-82
2022/09/21 00:34:45;;;;;;;3.78;1.63;;;7.90;99.90;;;;;;5048661;28;20033;-81
2022/09/21 00:37:11;;;;;;;4.10;1.85;;;8.20;99.90;;;;;;5047664;28;20555;-82
2022/09/21 00:39:37;;;;;;;4.70;1.95;;;7.80;99.90;;;;;;5052967;28;20017;-81
2022/09/21 00:42:09;;;;;;;7.35;1.95;;;7.90;99.90;;;;;;5054717;28;20029;-81
2022/09/21 00:44:35;;;;;;;3.35;1.50;;;7.90;99.90;;;;;;5053838;28;20025;-81
2022/09/21 00:47:08;;;;;;;4.40;2.05;;;7.90;99.90;;;;;;5055392;28;20116;-81
2022/09/21 00:49:34;;;;;;;3.67;1.52;;;7.90;99.90;;;;;;5054495;28;20032;-81
2022/09/21 00:52:03;;;;;;;7.47;1.83;;;7.80;99.90;;;;;;5051868;28;20621;-81
2022/09/21 00:54:33;;;;;;;6.85;1.95;;;7.80;99.90;;;;;;5052773;28;20040;-81
2022/09/21 00:57:01;;;;;;;5.80;1.73;;;7.80;99.90;;;;;;5053480;28;20017;-82
2022/09/21 00:59:33;;;;;;;8.35;1.65;;;7.80;99.90;;;;;;5075442;28;20024;-82
2022/09/21 01:01:59;;;;;;;4.70;1.83;;;7.80;99.90;;;;;;5051471;28;20118;-82
2022/09/21 01:04:27;;;;;;;4.57;2.20;;;7.70;99.90;;;;;;5048965;28;20029;-82
2022/09/21 01:06:54;;;;;;;6.20;2.45;;;7.70;99.90;;;;;;5046323;28;20021;-82
2022/09/21 01:09:20;;;;;;;4.45;1.60;;;7.70;99.90;;;;;;5053510;28;20055;-81
2022/09/21 01:12:25;;;;;;;4.97;1.73;;;7.60;99.90;;;;;;5053408;28;20028;-82
2022/09/21 01:14:54;;;;;;;3.80;1.45;;;7.60;99.90;;;;;;5023112;28;20040;-81
2022/09/21 01:17:50;;;;;;;6.05;1.88;;;7.60;99.90;;;;;;5050720;28;20021;-81
2022/09/21 01:20:44;;;;;;;4.32;1.67;;;7.60;99.90;;;;;;5053070;28;20048;-81
2022/09/21 01:23:13;;;;;;;2.72;1.40;;;7.60;99.90;;;;;;5051115;28;20021;-81
2022/09/21 01:26:11;;;;;;;5.20;1.67;;;7.60;99.90;;;;;;5058143;28;20107;-81
2022/09/21 01:29:10;;;;;;;3.67;1.60;;;7.60;99.90;;;;;;5031093;28;20025;-82
2022/09/21 01:31:53;;;;;;;3.28;1.40;;;7.50;99.90;;;;;;5053168;28;20021;-81
2022/09/21 01:34:29;;;;;;;5.78;1.90;;;7.50;99.90;;;;;;5048043;28;20118;-82
2022/09/21 01:36:57;;;;;;;5.63;1.73;;;7.50;99.90;;;;;;5055869;28;20059;-81
2022/09/21 01:39:24;;;;;;;6.10;2.08;;;7.50;99.90;;;;;;5055417;28;20039;-82
2022/09/21 01:41:51;;;;;;;4.75;2.00;;;7.50;99.90;;;;;;5058236;28;20025;-81
2022/09/21 01:44:20;;;;;;;4.80;1.38;;;7.50;99.90;;;;;;5058195;28;20017;-82
2022/09/21 01:46:47;;;;;;;6.85;1.90;;;7.40;99.90;;;;;;5054933;28;20547;-82
2022/09/21 01:49:21;;;;;;;5.00;1.52;;;7.40;99.90;;;;;;5048102;28;20048;-82
2022/09/21 01:51:53;;;;;;;3.83;1.83;;;7.40;99.90;;;;;;5051820;28;20036;-82
2022/09/21 01:54:27;;;;;;;5.95;1.95;;;7.40;99.90;;;;;;5058226;28;20056;-81
2022/09/21 01:57:00;;;;;;;5.50;1.73;;;7.30;99.90;;;;;;5058416;28;20033;-82
2022/09/21 01:59:39;;;;;;;5.35;1.50;;;7.30;99.90;;;;;;5057842;28;20025;-81
2022/09/21 02:02:12;;;;;;;4.57;1.75;;;7.30;99.90;;;;;;5058776;28;20029;-82
2022/09/21 02:04:38;;;;;;;4.82;2.13;;;7.30;99.90;;;;;;5054836;28;20021;-81
2022/09/21 02:09:37;;;;;;;6.88;2.03;;;7.20;99.90;;;;;;5007225;28;20057;-87
2022/09/21 02:12:08;;;;;;;4.57;1.63;;;7.50;99.90;;;;;;5005775;28;20022;-87
2022/09/21 02:14:36;;;;;;;3.92;1.60;;;7.20;99.90;;;;;;5004380;28;20029;-87
2022/09/21 02:17:25;;;;;;;2.67;1.20;;;7.20;99.90;;;;;;5001448;28;20062;-88
2022/09/21 02:20:21;;;;;;;4.18;1.92;;;7.20;99.90;;;;;;5001431;28;20113;-87
2022/09/21 02:23:25;;;;;;;5.20;1.75;;;7.20;99.90;;;;;;5007208;28;20189;-87
2022/09/21 02:26:31;;;;;;;5.97;1.65;;;7.30;99.90;;;;;;5003483;28;20026;-87
2022/09/21 02:29:16;;;;;;;3.90;2.05;;;7.20;99.90;;;;;;5022877;28;20026;-88
2022/09/21 02:32:16;;;;;;;5.38;1.80;;;7.00;99.90;;;;;;5001414;28;20368;-88
2022/09/21 02:35:21;;;;;;;4.72;1.77;;;7.20;99.90;;;;;;5005663;28;20065;-88
2022/09/21 02:38:08;;;;;;;4.78;1.48;;;7.30;99.90;;;;;;5002928;28;20490;-88
2022/09/21 02:40:55;;;;;;;6.30;1.80;;;7.10;99.90;;;;;;5003169;28;20033;-87
2022/09/21 02:43:29;;;;;;;6.72;2.22;;;7.10;99.90;;;;;;5001218;28;20022;-87
2022/09/21 02:46:06;;;;;;;3.92;1.85;;;7.10;99.90;;;;;;5005055;28;20760;-88
2022/09/21 02:48:40;;;;;;;9.75;2.17;;;7.50;99.90;;;;;;5010630;28;20022;-88
2022/09/21 02:51:15;;;;;;;4.03;2.20;;;7.10;99.90;;;;;;5005859;28;20085;-88
2022/09/21 02:53:48;;;;;;;5.90;1.42;;;7.10;99.90;;;;;;5007150;28;20523;-88
2022/09/21 02:56:23;;;;;;;4.93;2.20;;;7.10;99.90;;;;;;5010895;28;20029;-87
2022/09/21 02:58:56;;;;;;;3.85;1.73;;;7.10;99.90;;;;;;5011793;28;20018;-87
2022/09/21 03:01:29;;;;;;;5.75;2.25;;;7.10;99.90;;;;;;5018133;28;20056;-88
2022/09/21 03:03:55;;;;;;;7.07;2.20;;;7.20;99.90;;;;;;5007016;28;20026;-87
2022/09/21 03:06:47;;;;;;;5.30;2.00;;;6.90;99.90;;;;;;5008681;28;20037;-88
2022/09/21 03:09:23;;;;;;;7.18;1.85;;;7.50;99.90;;;;;;5008901;28;20038;-86
2022/09/21 03:11:49;;;;;;;6.97;2.33;;;7.10;99.90;;;;;;5001524;28;20698;-87
2022/09/21 03:14:28;;;;;;;5.30;1.85;;;7.90;99.90;;;;;;5000991;28;20029;-87
2022/09/21 03:17:06;;;;;;;7.60;2.15;;;7.00;99.90;;;;;;5005847;28;20045;-87
2022/09/21 03:19:32;;;;;;;4.82;1.98;;;7.00;99.90;;;;;;4995655;28;20029;-87
2022/09/21 03:22:11;;;;;;;6.70;2.88;;;7.00;99.90;;;;;;5000387;28;20021;-87
2022/09/21 03:24:46;;;;;;;6.30;2.40;;;7.10;99.90;;;;;;5002307;28;20066;-86
2022/09/21 03:27:19;;;;;;;6.72;2.47;;;7.00;99.90;;;;;;4997977;28;20491;-87
2022/09/21 03:29:45;;;;;;;6.32;2.33;;;7.10;99.90;;;;;;5008414;28;20033;-86
2022/09/21 03:32:16;;;;;;;6.28;2.45;;;6.80;99.90;;;;;;5006117;28;20023;-87
2022/09/21 03:34:45;;;;;;;5.28;1.92;;;6.90;99.90;;;;;;5008719;28;20033;-87
2022/09/21 03:37:17;;;;;;;5.20;2.22;;;6.70;99.90;;;;;;5006805;28;20075;-87
2022/09/21 03:39:50;;;;;;;4.10;1.83;;;6.90;99.90;;;;;;4996848;28;20109;-87
2022/09/21 03:42:23;;;;;;;4.88;2.47;;;7.20;99.90;;;;;;5009676;28;20022;-87
2022/09/21 03:44:52;;;;;;;3.13;1.67;;;7.20;99.90;;;;;;5004314;28;20038;-87
2022/09/21 03:47:24;;;;;;;7.25;2.08;;;6.80;99.90;;;;;;5008694;28;20530;-87
2022/09/21 03:50:16;;;;;;;4.90;1.75;;;6.80;99.90;;;;;;5006692;28;20625;-87
2022/09/21 03:53:02;;;;;;;4.15;1.60;;;6.60;99.90;;;;;;5007079;28;20033;-87
2022/09/21 03:55:39;;;;;;;4.03;1.75;;;6.10;99.90;;;;;;5007811;28;20495;-87
2022/09/21 03:58:13;;;;;;;6.23;1.90;;;6.80;99.90;;;;;;5007849;28;20047;-87
2022/09/21 04:00:44;;;;;;;4.78;1.98;;;6.70;99.90;;;;;;5010041;28;20029;-86
2022/09/21 04:03:19;;;;;;;4.70;1.73;;;7.80;99.90;;;;;;4997937;28;20026;-87
2022/09/21 04:05:52;;;;;;;4.97;1.57;;;6.80;99.90;;;;;;4999898;28;20065;-87
2022/09/21 04:08:18;;;;;;;4.83;2.00;;;6.70;99.90;;;;;;4991563;28;20035;-87
2022/09/21 04:10:47;;;;;;;4.60;2.03;;;7.40;99.90;;;;;;5006767;28;20107;-87
2022/09/21 04:13:12;;;;;;;4.80;1.93;;;7.20;99.90;;;;;;5005946;28;20030;-87
2022/09/21 04:15:40;;;;;;;5.32;2.40;;;9.10;99.90;;;;;;5004503;28;20056;-87
2022/09/21 04:18:06;;;;;;;5.33;2.00;;;7.00;99.90;;;;;;5002674;28;20041;-87
2022/09/21 04:20:32;;;;;;;5.10;2.33;;;6.60;99.90;;;;;;5005197;28;20029;-87
2022/09/21 04:23:01;;;;;;;5.53;2.13;;;7.00;99.90;;;;;;5004435;28;20052;-88
2022/09/21 04:25:26;;;;;;;4.43;2.00;;;6.50;99.90;;;;;;5009066;28;20039;-88
2022/09/21 04:27:52;;;;;;;6.68;1.65;;;7.20;99.90;;;;;;5002801;28;20576;-87
2022/09/21 04:30:21;;;;;;;4.73;1.90;;;6.50;99.90;;;;;;5003693;28;20030;-88
2022/09/21 04:32:47;;;;;;;5.73;1.70;;;6.60;99.90;;;;;;5005858;28;20580;-87
2022/09/21 04:35:12;;;;;;;4.45;1.77;;;6.30;99.90;;;;;;5008555;28;20034;-87
2022/09/21 04:37:38;;;;;;;3.67;1.73;;;6.50;99.90;;;;;;5006968;28;20030;-87
2022/09/21 04:40:05;;;;;;;4.17;1.60;;;6.40;99.90;;;;;;5005886;28;20104;-87
2022/09/21 04:42:31;;;;;;;3.75;1.50;;;6.50;99.90;;;;;;5005975;28;20449;-88
2022/09/21 04:44:56;;;;;;;3.88;1.60;;;7.50;99.90;;;;;;5007857;28;20034;-87
2022/09/21 04:47:24;;;;;;;4.05;1.70;;;7.90;99.90;;;;;;5012625;28;20079;-88
2022/09/21 04:49:52;;;;;;;5.73;1.70;;;6.50;99.90;;;;;;5007907;28;20040;-88
2022/09/21 04:52:18;;;;;;;3.30;1.70;;;5.60;99.90;;;;;;5012699;28;20402;-88
2022/09/21 04:54:47;;;;;;;4.70;1.70;;;6.50;99.90;;;;;;5006145;28;20391;-87
2022/09/21 04:57:13;;;;;;;5.45;2.15;;;6.40;99.90;;;;;;5009036;28;20445;-87
2022/09/21 04:59:42;;;;;;;4.15;1.63;;;6.50;99.90;;;;;;5002546;28;20034;-86
2022/09/21 05:02:08;;;;;;;4.85;2.17;;;6.50;99.90;;;;;;5013924;28;20025;-87
2022/09/21 05:04:34;;;;;;;4.60;1.80;;;6.50;99.90;;;;;;5007012;28;20183;-88
2022/09/21 05:07:00;;;;;;;3.87;1.60;;;6.50;99.90;;;;;;5006900;28;20065;-87
2022/09/21 05:12:09;;;;;;;5.80;2.58;;;6.40;99.90;;;;;;5005708;28;20045;-87
2022/09/21 05:14:35;;;;;;;6.00;2.67;;;6.40;99.90;;;;;;5014156;28;20030;-88
2022/09/21 05:17:03;;;;;;;4.65;2.35;;;6.40;99.90;;;;;;5011282;28;20097;-88
2022/09/21 05:19:29;;;;;;;5.90;3.17;;;6.30;99.90;;;;;;5004984;28;20052;-85
2022/09/21 05:21:56;;;;;;;6.13;2.83;;;6.40;99.90;;;;;;5017622;28;20109;-85
2022/09/21 05:24:22;;;;;;;4.23;2.20;;;6.40;99.90;;;;;;5013104;28;20018;-88
2022/09/21 05:26:48;;;;;;;7.67;2.00;;;6.40;99.90;;;;;;5007026;28;20687;-88
2022/09/21 05:29:14;;;;;;;5.40;2.40;;;6.80;99.90;;;;;;5003189;28;20026;-89
2022/09/21 05:32:02;;;;;;;5.60;1.90;;;6.50;99.90;;;;;;5003306;28;20030;-88
2022/09/21 05:34:53;;;;;;;5.07;1.93;;;6.40;99.90;;;;;;5000386;28;20030;-87
2022/09/21 05:37:49;;;;;;;4.83;2.13;;;6.30;99.90;;;;;;5010903;28;20029;-87
2022/09/21 05:40:15;;;;;;;3.60;1.77;;;6.50;99.90;;;;;;4999626;28;20026;-87
2022/09/21 05:42:44;;;;;;;3.80;1.47;;;6.60;99.90;;;;;;5000815;28;20266;-87
2022/09/21 05:45:15;;;;;;;5.23;1.80;;;6.60;99.90;;;;;;5009240;28;20073;-87
2022/09/21 05:47:47;;;;;;;3.90;1.70;;;6.70;99.90;;;;;;5002955;28;20118;-87
2022/09/21 05:50:27;;;;;;;4.90;1.83;;;6.70;99.90;;;;;;5005890;28;20476;-87
2022/09/21 05:53:27;;;;;;;3.50;1.42;;;6.70;99.90;;;;;;5004542;28;20050;-88
2022/09/21 05:56:07;;;;;;;3.37;1.57;;;6.70;99.90;;;;;;5012901;28;20022;-87
2022/09/21 05:58:42;;;;;;;3.90;1.53;;;6.70;99.90;;;;;;5010776;28;20032;-87
2022/09/21 06:01:20;;;;;;;4.40;1.90;;;6.70;99.90;;;;;;5010944;28;20049;-88
2022/09/21 06:03:48;;;;;;;4.97;2.08;;;6.80;99.90;;;;;;5000607;28;20561;-87
2022/09/21 06:06:19;;;;;;;5.17;1.73;;;6.20;99.90;;;;;;5009069;28;20022;-87
2022/09/21 06:08:45;;;;;;;4.65;1.92;;;7.40;99.90;;;;;;5004172;28;20034;-87
2022/09/21 06:11:12;;;;;;;6.78;2.17;;;6.80;99.90;;;;;;5004854;28;20874;-87
2022/09/21 06:13:39;;;;;;;6.50;2.35;;;6.90;99.90;;;;;;5009659;28;20025;-88
2022/09/21 06:16:05;;;;;;;4.07;1.87;;;7.40;99.90;;;;;;5004102;28;20109;-88
2022/09/21 06:18:35;;;;;;;4.80;2.03;;;7.00;99.90;;;;;;5003863;28;20025;-87
2022/09/21 06:21:01;;;;;;;3.47;1.63;;;7.10;99.90;;;;;;5002418;28;20029;-89
2022/09/21 06:23:29;;;;;;;5.15;2.40;;;7.30;99.90;;;;;;5013969;28;20442;-88
2022/09/21 06:25:57;;;;;;;4.70;2.03;;;7.70;99.90;;;;;;4998493;28;20042;-90
2022/09/21 06:28:29;;;;;;;3.85;1.75;;;7.40;99.90;;;;;;5003627;28;20022;-88
2022/09/21 06:30:57;;;;;;;4.18;1.92;;;8.10;99.90;;;;;;5011604;28;20057;-88
2022/09/21 06:33:23;;;;;;;3.70;1.67;;;7.60;99.90;;;;;;5007904;28;20030;-88
2022/09/21 06:35:57;;;;;;;4.63;1.95;;;8.30;99.90;;;;;;5007424;28;20026;-88
2022/09/21 06:38:24;;;;;;;4.85;1.63;;;7.80;99.90;;;;;;5005191;28;20022;-89
2022/09/21 06:40:54;;;;;;;3.50;1.63;;;7.80;99.90;;;;;;5002446;28;20060;-89
2022/09/21 06:43:21;;;;;;;4.43;1.83;;;7.90;99.90;;;;;;5009482;28;20018;-88
2022/09/21 06:46:01;;;;;;;3.83;1.60;;;8.60;99.90;;;;;;5008716;28;20027;-88
2022/09/21 06:48:28;;;;;;;4.43;1.50;;;8.40;99.90;;;;;;5008811;28;20413;-88
2022/09/21 06:51:04;;;;;;;3.95;1.38;;;8.10;99.90;;;;;;5007629;28;20029;-87
2022/09/21 06:53:31;;;;;;;3.22;1.58;;;8.10;99.90;;;;;;5008968;28;20065;-87
2022/09/21 06:56:08;;;;;;;3.95;1.23;;;8.20;99.90;;;;;;5010595;28;20049;-87
2022/09/21 06:58:35;;;;;;;3.60;1.20;;;8.10;99.90;;;;;;5005131;28;20072;-87
2022/09/21 07:01:08;;;;;;;2.85;1.20;;;8.20;99.90;;;;;;5010173;28;20382;-87
2022/09/21 07:03:35;;;;;;;4.15;1.77;;;8.40;99.90;;;;;;5009050;28;20022;-87
2022/09/21 07:06:03;;;;;;;4.18;1.80;;;8.50;99.90;;;;;;5010125;28;20032;-87
2022/09/21 07:08:29;;;;;;;8.13;1.70;;;8.50;99.90;;;;;;5002406;28;20026;-88
2022/09/21 07:11:04;;;;;;;4.88;1.52;;;8.70;99.90;;;;;;5005133;28;20029;-87
2022/09/21 07:13:30;;;;;;;4.65;1.65;;;8.80;99.90;;;;;;5006077;28;20104;-87
2022/09/21 07:16:01;;;;;;;5.72;1.88;;;8.80;99.90;;;;;;5006672;28;20105;-88
2022/09/21 07:18:27;;;;;;;3.88;1.75;;;9.00;99.90;;;;;;5000653;28;20030;-87
2022/09/21 07:20:53;;;;;;;3.60;1.65;;;9.10;99.90;;;;;;5002725;28;20677;-88
2022/09/21 07:23:21;;;;;;;4.18;1.75;;;9.20;99.90;;;;;;5003420;28;20376;-88
2022/09/21 07:25:49;;;;;;;5.18;1.80;;;9.90;99.90;;;;;;5006386;28;20025;-88
2022/09/21 07:28:15;;;;;;;7.20;2.00;;;9.60;99.90;;;;;;5001433;28;20059;-88
2022/09/21 07:30:41;;;;;;;3.45;1.80;;;9.40;99.90;;;;;;5002987;28;20114;-87
2022/09/21 07:33:07;;;;;;;4.05;1.40;;;9.60;99.90;;;;;;4999580;28;20085;-88
2022/09/21 07:35:33;;;;;;;4.22;1.60;;;9.60;99.90;;;;;;5006540;28;20034;-88
2022/09/21 07:38:05;;;;;;;3.58;1.50;;;9.70;99.90;;;;;;5008842;28;20514;-88
2022/09/21 07:40:31;;;;;;;3.55;1.38;;;9.90;99.90;;;;;;5008023;28;20054;-88
2022/09/21 07:42:57;;;;;;;3.65;1.50;;;9.90;99.90;;;;;;5003609;28;20065;-88
2022/09/21 07:45:24;;;;;;;2.30;0.77;;;10.00;99.90;;;;;;5007368;28;20035;-88
2022/09/21 07:47:53;;;;;;;4.75;1.20;;;10.10;99.90;;;;;;5003962;28;20131;-87
2022/09/21 07:50:21;;;;;;;2.38;1.00;;;10.30;99.90;;;;;;5005407;28;20165;-88
2022/09/21 07:52:47;;;;;;;3.00;1.05;;;10.30;99.90;;;;;;5009563;28;20045;-87
2022/09/21 07:55:13;;;;;;;1.90;0.70;;;10.40;99.90;;;;;;5006543;28;20030;-88
2022/09/21 08:00:24;;;;;;;1.70;0.82;;;10.40;99.90;;;;;;5005871;28;20046;-87
2022/09/21 08:02:49;;;;;;;2.30;0.93;;;10.50;99.90;;;;;;5004600;28;20018;-89
2022/09/21 08:05:24;;;;;;;3.13;1.08;;;10.70;99.90;;;;;;5001473;28;20420;-88
2022/09/21 08:07:51;;;;;;;3.85;1.05;;;10.90;99.90;;;;;;5000761;28;20092;-88
2022/09/21 08:10:17;;;;;;;2.75;0.98;;;10.80;99.90;;;;;;5028448;23;20029;-82
2022/09/21 08:12:43;;;;;;;3.35;1.50;;;10.90;99.90;;;;;;5046379;28;20033;-82
2022/09/21 08:15:10;;;;;;;4.35;0.98;;;11.00;99.90;;;;;;5057901;28;20064;-82
2022/09/21 08:17:37;;;;;;;2.88;1.10;;;11.10;99.90;;;;;;5048563;28;20029;-82
2022/09/21 08:20:03;;;;;;;4.35;1.30;;;11.10;99.90;;;;;;5052264;28;20107;-82
2022/09/21 08:22:28;;;;;;;2.15;0.80;;;11.20;99.90;;;;;;5057060;28;20056;-82
2022/09/21 08:24:54;;;;;;;3.50;0.90;;;11.30;99.90;;;;;;5058620;28;20051;-82
2022/09/21 08:27:20;;;;;;;2.42;0.70;;;11.50;99.90;;;;;;5057563;28;20017;-83
2022/09/21 08:29:46;;;;;;;2.15;0.90;;;11.60;99.90;;;;;;5055792;28;20024;-82
2022/09/21 08:32:11;;;;;;;6.25;0.85;;;11.80;99.90;;;;;;5056576;28;20033;-82
2022/09/21 08:34:37;;;;;;;1.92;0.52;;;12.00;99.90;;;;;;5055405;28;20036;-82
2022/09/21 08:37:03;;;;;;;4.22;0.50;;;12.10;99.90;;;;;;5050937;28;20048;-82
2022/09/21 08:39:28;;;;;;;3.92;0.50;;;12.20;99.90;;;;;;5055745;28;20104;-82
2022/09/21 08:42:01;;;;;;;1.50;0.45;;;12.30;99.90;;;;;;5052261;28;20029;-82
2022/09/21 08:44:37;;;;;;;2.13;0.47;;;12.40;99.90;;;;;;5047004;28;20025;-82
2022/09/21 08:47:10;;;;;;;0.88;0.30;;;12.50;99.90;;;;;;5049242;28;20081;-82
2022/09/21 08:49:38;;;;;;;1.33;0.40;;;12.60;99.90;;;;;;5055391;28;20021;-82
2022/09/21 08:52:10;;;;;;;1.52;0.30;;;12.60;99.90;;;;;;5057232;28;20059;-82
2022/09/21 08:54:42;;;;;;;0.68;0.17;;;12.70;99.90;;;;;;5054167;28;20033;-82
2022/09/21 08:57:11;;;;;;;0.40;0.20;;;12.80;99.90;;;;;;5054049;28;20017;-82
2022/09/21 08:59:45;;;;;;;1.13;0.28;;;12.80;99.90;;;;;;5055732;28;20534;-82
2022/09/21 09:02:36;;;;;;;0.65;0.28;;;13.00;99.90;;;;;;5049242;28;20539;-82
2022/09/21 09:05:12;;;;;;;3.63;0.30;;;13.10;99.90;;;;;;5053451;28;20028;-82
2022/09/21 09:08:09;;;;;;;0.63;0.30;;;13.20;99.90;;;;;;5054469;28;20029;-82
2022/09/21 09:11:03;;;;;;;0.50;0.20;;;13.20;99.90;;;;;;5047422;28;20072;-82
2022/09/21 09:13:52;;;;;;;0.88;0.20;;;13.40;99.90;;;;;;5055144;28;20393;-83
2022/09/21 09:16:46;;;;;;;2.00;0.50;;;13.40;99.90;;;;;;5043335;28;20120;-82
2022/09/21 09:19:27;;;;;;;1.40;0.28;;;13.60;99.90;;;;;;5064341;28;20570;-82
2022/09/21 09:21:54;;;;;;;0.50;0.20;;;13.60;99.90;;;;;;5048533;28;20025;-82
2022/09/21 09:24:36;;;;;;;3.00;0.60;;;13.70;99.90;;;;;;5056135;28;20270;-82
2022/09/21 09:27:09;;;;;;;0.35;0.25;;;13.80;99.90;;;;;;5051201;28;20033;-82
2022/09/21 09:30:14;;;;;;;2.28;0.30;;;13.80;99.90;;;;;;5049650;28;20029;-82
2022/09/21 09:33:05;;;;;;;0.75;0.20;;;13.90;99.90;;;;;;5037127;28;20062;-82
2022/09/21 09:35:46;;;;;;;1.33;0.25;;;14.00;99.90;;;;;;5048606;28;20055;-82
2022/09/21 09:38:35;;;;;;;4.40;0.77;;;13.90;99.90;;;;;;5056451;28;20092;-82
2022/09/21 09:41:09;;;;;;;0.90;0.30;;;14.00;99.90;;;;;;5055186;28;20118;-82
2022/09/21 09:43:56;;;;;;;2.35;0.30;;;14.20;99.90;;;;;;5054630;28;20021;-83
2022/09/21 09:46:34;;;;;;;2.25;0.55;;;14.20;99.90;;;;;;5055604;28;20612;-82
2022/09/21 09:49:35;;;;;;;0.68;0.20;;;14.20;99.90;;;;;;5055927;28;20060;-82
2022/09/21 09:52:02;;;;;;;1.20;0.60;;;14.50;99.90;;;;;;5027569;28;20029;-83
2022/09/21 09:54:32;;;;;;;1.20;0.20;;;14.50;99.90;;;;;;5054334;28;20370;-82
2022/09/21 09:56:59;;;;;;;0.90;0.30;;;14.70;99.90;;;;;;5058934;28;20017;-83
2022/09/21 09:59:42;;;;;;;0.70;0.22;;;14.90;99.90;;;;;;5052779;28;20115;-82
2022/09/21 10:02:18;;;;;;;1.85;0.50;;;15.00;99.90;;;;;;5051271;28;20029;-82
2022/09/21 10:05:05;;;;;;;0.73;0.17;;;14.80;99.90;;;;;;5057527;28;20028;-83
2022/09/21 10:07:40;;;;;;;1.40;0.30;;;14.70;99.90;;;;;;5058268;28;20028;-82
2022/09/21 10:10:33;;;;;;;1.48;0.43;;;14.80;99.90;;;;;;5055183;28;20017;-82
2022/09/21 10:13:04;;;;;;;0.93;0.40;;;14.80;99.90;;;;;;5046603;28;20090;-82
2022/09/21 10:15:31;;;;;;;0.82;0.30;;;14.90;99.90;;;;;;5052668;28;20036;-83
2022/09/21 10:18:06;;;;;;;1.63;0.43;;;14.70;99.90;;;;;;5051850;28;20115;-82
2022/09/21 10:20:32;;;;;;;1.58;0.50;;;14.50;99.90;;;;;;5052364;28;20032;-82
2022/09/21 10:22:59;;;;;;;4.13;0.50;;;14.20;99.90;;;;;;5053085;28;20500;-82
2022/09/21 10:25:25;;;;;;;2.85;0.40;;;14.00;99.90;;;;;;5053047;28;20551;-82
2022/09/21 10:27:52;;;;;;;1.15;0.50;;;13.80;99.90;;;;;;5051104;28;20028;-82
2022/09/21 10:30:29;;;;;;;1.45;0.63;;;14.20;99.90;;;;;;5053770;28;20024;-82
2022/09/21 10:32:57;;;;;;;1.13;0.40;;;14.00;99.90;;;;;;5051938;28;20025;-83
2022/09/21 10:35:24;;;;;;;0.52;0.20;;;13.90;99.90;;;;;;5053550;28;20025;-82
2022/09/21 10:38:16;;;;;;;1.38;0.30;;;13.80;99.90;;;;;;5056656;28;20035;-82
2022/09/21 10:40:42;;;;;;;;;;;13.60;99.90;;;;;;5058844;28;20025;-82
2022/09/21 10:43:21;;;;;;;1.20;0.30;;;13.50;99.90;;;;;;5053946;28;19919;-83
2022/09/21 10:45:54;;;;;;;0.45;0.20;;;13.50;99.90;;;;;;5058491;28;20040;-82
2022/09/21 10:48:22;;;;;;;1.48;0.32;;;13.40;99.90;;;;;;5056498;28;20377;-82
2022/09/21 10:50:49;;;;;;;0.68;0.20;;;13.50;99.90;;;;;;5075814;28;20178;-82
2022/09/21 10:53:28;;;;;;;1.20;0.28;;;14.00;99.90;;;;;;5064613;28;20055;-82
2022/09/21 10:56:00;;;;;;;0.30;0.15;;;14.40;99.90;;;;;;5059481;28;20040;-82
2022/09/21 10:58:25;;;;;;;0.77;0.17;;;14.70;99.90;;;;;;5063520;28;20071;-82
2022/09/21 11:00:54;;;;;;;0.35;0.10;;;15.20;99.90;;;;;;5056745;28;20029;-82
2022/09/21 11:03:29;;;;;;;0.40;0.10;;;15.50;99.90;;;;;;5051741;28;20037;-83
2022/09/21 11:05:58;;;;;;;1.02;0.15;;;15.60;99.90;;;;;;5059838;28;20033;-82
2022/09/21 11:08:38;;;;;;;0.45;0.20;;;15.80;99.90;;;;;;5058066;28;20022;-83
2022/09/21 11:11:36;;;;;;;0.43;0.17;;;15.80;99.90;;;;;;5053152;28;20032;-82
2022/09/21 11:14:31;;;;;;;0.60;0.10;;;15.40;99.90;;;;;;5045905;28;20033;-82
2022/09/21 11:17:18;;;;;;;0.82;0.20;;;15.40;99.90;;;;;;5044532;28;20029;-82
2022/09/21 11:20:21;;;;;;;0.88;0.20;;;15.70;99.90;;;;;;5047421;28;20109;-83
2022/09/21 11:23:03;;;;;;;1.27;0.20;;;15.70;99.90;;;;;;5053570;28;20060;-82
2022/09/21 11:25:46;;;;;;;0.32;0.10;;;16.10;99.90;;;;;;5055387;28;20083;-83
2022/09/21 11:28:26;;;;;;;1.27;0.20;;;16.20;99.90;;;;;;5044976;28;20058;-82
2022/09/21 11:31:32;;;;;;;0.30;0.10;;;16.60;99.90;;;;;;5047481;28;20077;-82
2022/09/21 11:34:30;;;;;;;0.73;0.22;;;16.40;99.90;;;;;;5051475;28;20107;-83
2022/09/21 11:37:08;;;;;;;0.30;0.10;;;16.50;99.90;;;;;;5052062;28;20087;-82
2022/09/21 11:39:44;;;;;;;0.20;0.10;;;16.80;99.90;;;;;;5054814;28;20032;-82
2022/09/21 11:42:34;;;;;;;1.17;0.20;;;16.50;99.90;;;;;;5051784;28;20085;-82
2022/09/21 11:45:01;;;;;;;0.52;0.13;;;16.70;99.90;;;;;;5059536;28;20039;-82
2022/09/21 11:47:45;;;;;;;0.70;0.10;;;17.10;99.90;;;;;;5056992;28;20132;-82
2022/09/21 11:50:11;;;;;;;0.40;0.20;;;17.40;99.90;;;;;;5059525;28;20091;-82
2022/09/21 11:52:55;;;;;;;0.40;0.20;;;17.40;99.90;;;;;;5060860;28;20025;-83
2022/09/21 11:55:43;;;;;;;0.65;0.17;;;17.60;99.90;;;;;;5060616;28;20025;-82
2022/09/21 11:58:18;;;;;;;0.55;0.10;;;17.90;99.90;;;;;;5059957;28;20017;-82
2022/09/21 12:00:57;;;;;;;0.40;0.10;;;17.50;99.90;;;;;;5059295;28;20074;-83
2022/09/21 12:03:34;;;;;;;0.20;0.10;;;17.70;99.90;;;;;;5056353;28;20477;-83
2022/09/21 12:06:32;;;;;;;0.10;0.10;;;17.80;99.90;;;;;;5068342;28;20022;-82
2022/09/21 12:09:35;;;;;;;0.10;0.03;;;17.80;99.80;;;;;;5053415;28;20393;-83
2022/09/21 12:12:18;;;;;;;0.30;0.13;;;17.70;99.40;;;;;;5055684;28;20037;-82
2022/09/21 12:14:43;;;;;;;1.15;0.10;;;17.90;99.10;;;;;;5056529;28;20036;-83
2022/09/21 12:17:38;;;;;;;0.15;0.00;;;18.00;99.50;;;;;;5056456;28;20035;-82
2022/09/21 12:20:20;;;;;;;0.10;0.00;;;17.80;99.20;;;;;;5052561;28;20033;-83
2022/09/21 12:22:48;;;;;;;0.17;0.10;;;17.50;99.20;;;;;;5053562;28;20025;-82
2022/09/21 12:25:22;;;;;;;0.25;0.10;;;17.40;99.40;;;;;;5053340;28;20607;-83
2022/09/21 12:28:11;;;;;;;0.10;0.10;;;17.40;99.50;;;;;;5051049;28;20506;-82
2022/09/21 12:30:41;;;;;;;0.30;0.10;;;17.60;99.60;;;;;;5006392;28;20036;-83
2022/09/21 12:33:27;;;;;;;2.20;0.10;;;17.80;99.50;;;;;;5056427;28;20142;-82
2022/09/21 12:36:15;;;;;;;0.10;0.03;;;18.10;98.80;;;;;;5051637;28;20095;-82
2022/09/21 12:39:14;;;;;;;0.45;0.10;;;18.30;98.60;;;;;;5056294;28;20067;-83
2022/09/21 12:42:06;;;;;;;0.10;0.05;;;18.60;98.70;;;;;;5028250;28;20147;-83
2022/09/21 12:44:52;;;;;;;0.10;0.00;;;18.90;99.90;;;;;;5049727;28;20021;-83
2022/09/21 12:47:37;;;;;;;0.35;0.20;;;;;;;;;;5054435;28;20017;-83
2022/09/21 12:50:14;;;;;;;0.20;0.03;;;19.20;96.60;;;;;;5053891;28;20017;-83
2022/09/21 12:52:40;;;;;;;0.98;0.13;;;19.30;97.10;;;;;;5053936;28;20025;-83
2022/09/21 12:55:09;;;;;;;0.50;0.10;;;19.10;96.30;;;;;;5055284;28;20033;-82
2022/09/21 12:58:02;;;;;;;0.30;0.05;;;19.20;95.60;;;;;;5060639;28;20021;-83
2022/09/21 13:00:44;;;;;;;2.10;0.10;;;19.20;95.90;;;;;;5048297;28;20078;-83
2022/09/21 13:03:27;;;;;;;0.20;0.10;;;19.30;96.10;;;;;;5048974;28;20108;-83
2022/09/21 13:06:11;;;;;;;1.52;0.10;;;19.80;95.40;;;;;;5052473;28;20037;-83
2022/09/21 13:08:42;;;;;;;0.65;0.00;;;20.00;94.60;;;;;;5053190;28;20075;-83
2022/09/21 13:11:09;;;;;;;0.25;0.10;;;19.90;94.20;;;;;;5056225;28;20039;-83
2022/09/21 13:13:58;;;;;;;0.80;0.10;;;20.30;94.40;;;;;;5053480;28;20097;-83
2022/09/21 13:16:28;;;;;;;0.38;0.00;;;20.50;94.10;;;;;;5055455;28;20052;-83
2022/09/21 13:19:24;;;;;;;1.35;0.20;;;20.70;92.70;;;;;;5052505;28;20037;-83
2022/09/21 13:22:13;;;;;;;0.00;0.00;;;20.50;92.90;;;;;;5057468;28;20021;-83
2022/09/21 13:24:41;;;;;;;0.15;0.00;;;20.10;92.80;;;;;;5060304;28;20040;-84
2022/09/21 13:27:07;;;;;;;0.52;0.15;;;20.20;93.40;;;;;;5060787;28;20016;-83
2022/09/21 13:29:39;;;;;;;0.20;0.10;;;20.40;93.40;;;;;;5055193;28;20107;-83
2022/09/21 13:32:11;;;;;;;0.45;0.15;;;20.90;94.30;;;;;;5059982;28;20028;-83
2022/09/21 13:34:38;;;;;;;0.10;0.00;;;21.30;92.50;;;;;;5077776;28;20025;-83
2022/09/21 13:37:10;;;;;;;0.77;0.13;;;21.50;91.20;;;;;;5058696;28;20111;-83